Edinburg, New York
Current Conditions -  °F | °C
As of 4:15 PM on Friday 24 Oct 2014 (Local Time) from KNY0 Reporting Station
Overcast Overcast  
Wind Chill: 51°   Ceiling: 2900
Heat Index: 51°   Visibility: 10mi
Dew Point: 43°   Wind: 7mph
Humidity: 72%   Direction: 350°N
Pressure: 29.81"   Gusts: NA
Location:  43.2819°N, 74.3419°W
Report Text: KNY0 242015Z AUTO 35006KT 10SM OVC029 11/06 A2981 RMK AO2 T01080060
Loading
Personal Weather Stations






























Interactive Weather Map
Tropical Storm Tracking
New forecast layout! Learn more

10-Day Weather Forecast

Advertisements
Track Severe Weather on mobile